Wetterdaten: Woche 20.03.17 - 26.03.17 (KW12)
Datum Zeit Temp. Aussen Temp. o. S. +5cm Feuchte Auss BlattFeu 1 Luftdruck Regen Sonnenschein Regendauer Solar Windben Empfang
20.03.2017 00:00 9,9 C 9,8 C 8,2 C 92 % 5 lf 1008,5 hPa 0,0 l/m 0,00 h 0,00 h 0 W/m 22,3 km/h (4 Bft) 95,65 %
20.03.2017 01:00 9,6 C 9,5 C 7,9 C 94 % 2 lf 1008,4 hPa 0,0 l/m 0,00 h 0,00 h 0 W/m 20,1 km/h (4 Bft) 97,80 %
20.03.2017 02:00 9,8 C 10,2 C 8,7 C 92 % 0 lf 1008,2 hPa 0,0 l/m 0,00 h 0,00 h 0 W/m 26,1 km/h (4 Bft) 96,01 %
20.03.2017 03:00 10,2 C 10,5 C 8,9 C 89 % 0 lf 1008,1 hPa 0,0 l/m 0,00 h 0,00 h 0 W/m 25,7 km/h (4 Bft) 93,81 %
20.03.2017 04:00 10,2 C 10,5 C 8,8 C 88 % 0 lf 1008,1 hPa 0,0 l/m 0,00 h 0,00 h 0 W/m 26,7 km/h (4 Bft) 96,84 %
20.03.2017 05:00 10,1 C 10,3 C 8,9 C 88 % 0 lf 1007,8 hPa 0,0 l/m 0,00 h 0,00 h 0 W/m 23,8 km/h (4 Bft) 94,38 %
20.03.2017 06:00 10,2 C 10,6 C 8,9 C 88 % 0 lf 1007,7 hPa 0,0 l/m 0,00 h 0,00 h 6 W/m 21,5 km/h (4 Bft) 97,00 %
20.03.2017 07:00 10,1 C 10,2 C 8,3 C 89 % 6 lf 1008,1 hPa 0,0 l/m 0,00 h 0,03 h 20 W/m 25,2 km/h (4 Bft) 95,43 %
20.03.2017 08:00 10,1 C 10,6 C 9,3 C 90 % 0 lf 1007,9 hPa 0,0 l/m 0,00 h 0,00 h 60 W/m 30,2 km/h (5 Bft) 94,44 %
20.03.2017 09:00 10,0 C 10,4 C 9,1 C 92 % 4 lf 1007,7 hPa 0,0 l/m 0,00 h 0,07 h 89 W/m 26,8 km/h (4 Bft) 96,90 %
20.03.2017 10:00 10,5 C 12,4 C 11,0 C 92 % 0 lf 1007,6 hPa 0,0 l/m 0,27 h 0,13 h 219 W/m 32,2 km/h (5 Bft) 97,16 %
20.03.2017 11:00 12,1 C 15,0 C 13,1 C 83 % 0 lf 1007,3 hPa 0,0 l/m 0,47 h 0,00 h 332 W/m 33,8 km/h (5 Bft) 94,12 %
20.03.2017 12:00 13,5 C 16,0 C 14,3 C 75 % 0 lf 1006,8 hPa 0,0 l/m 0,83 h 0,00 h 355 W/m 39,6 km/h (6 Bft) 97,93 %
20.03.2017 13:00 14,2 C 16,4 C 14,9 C 71 % 0 lf 1006,3 hPa 0,0 l/m 0,63 h 0,00 h 327 W/m 33,8 km/h (5 Bft) 96,02 %
20.03.2017 14:00 14,1 C 15,2 C 14,0 C 72 % 0 lf 1005,8 hPa 0,0 l/m 0,00 h 0,00 h 188 W/m 32,9 km/h (5 Bft) 94,44 %
20.03.2017 15:00 13,8 C 14,6 C 13,3 C 74 % 0 lf 1005,6 hPa 0,0 l/m 0,13 h 0,00 h 158 W/m 37,1 km/h (5 Bft) 95,72 %
20.03.2017 16:00 13,0 C 13,7 C 12,2 C 76 % 0 lf 1005,4 hPa 0,0 l/m 0,00 h 0,00 h 99 W/m 36,0 km/h (5 Bft) 96,44 %
20.03.2017 17:00 12,4 C 12,7 C 11,3 C 78 % 0 lf 1005,5 hPa 0,0 l/m 0,00 h 0,00 h 43 W/m 33,8 km/h (5 Bft) 95,31 %
20.03.2017 18:00 11,7 C 11,8 C 10,3 C 81 % 0 lf 1005,6 hPa 0,0 l/m 0,00 h 0,00 h 9 W/m 28,7 km/h (4 Bft) 95,86 %
20.03.2017 19:00 10,9 C 10,7 C 9,1 C 85 % 1 lf 1005,8 hPa 0,0 l/m 0,00 h 0,10 h 3 W/m 32,6 km/h (5 Bft) 95,83 %
20.03.2017 20:00 10,7 C 11,1 C 9,4 C 86 % 0 lf 1005,2 hPa 0,0 l/m 0,00 h 0,00 h 0 W/m 25,0 km/h (4 Bft) 96,46 %
20.03.2017 21:00 10,8 C 11,1 C 9,4 C 84 % 0 lf 1005,0 hPa 0,0 l/m 0,00 h 0,00 h 0 W/m 23,9 km/h (4 Bft) 96,00 %
20.03.2017 22:00 11,1 C 11,5 C 9,8 C 81 % 0 lf 1004,9 hPa 0,0 l/m 0,00 h 0,00 h 0 W/m 26,4 km/h (4 Bft) 94,88 %
20.03.2017 23:00 11,3 C 11,6 C 9,9 C 79 % 0 lf 1004,8 hPa 0,0 l/m 0,00 h 0,17 h 0 W/m 28,0 km/h (4 Bft) 95,75 %
21.03.2017 00:00 11,1 C 11,1 C 9,4 C 82 % 1 lf 1004,9 hPa 0,0 l/m 0,00 h 0,20 h 0 W/m 29,3 km/h (5 Bft) 96,91 %
21.03.2017 01:00 10,7 C 10,1 C 8,6 C 86 % 7 lf 1004,9 hPa 0,2 l/m 0,00 h 0,50 h 0 W/m 29,6 km/h (5 Bft) 95,10 %
21.03.2017 02:00 10,1 C 9,4 C 7,8 C 92 % 15 lf 1005,1 hPa 0,2 l/m 0,00 h 0,58 h 0 W/m 25,0 km/h (4 Bft) 94,74 %
21.03.2017 03:00 9,7 C 9,1 C 7,8 C 93 % 15 lf 1005,0 hPa 0,0 l/m 0,00 h 0,00 h 0 W/m 14,7 km/h (3 Bft) 97,74 %
21.03.2017 04:00 9,6 C 9,3 C 7,5 C 93 % 8 lf 1005,0 hPa 0,0 l/m 0,00 h 0,00 h 0 W/m 20,4 km/h (4 Bft) 95,25 %
21.03.2017 05:00 9,7 C 9,7 C 7,7 C 91 % 4 lf 1005,5 hPa 0,0 l/m 0,00 h 0,03 h 0 W/m 20,7 km/h (4 Bft) 96,45 %
21.03.2017 06:00 9,1 C 9,0 C 6,9 C 90 % 0 lf 1006,0 hPa 0,0 l/m 0,00 h 0,00 h 11 W/m 19,9 km/h (4 Bft) 95,53 %
21.03.2017 07:00 8,6 C 9,1 C 7,2 C 90 % 0 lf 1006,3 hPa 0,0 l/m 0,20 h 0,00 h 56 W/m 11,5 km/h (2 Bft) 94,45 %
21.03.2017 08:00 9,3 C 10,8 C 9,0 C 90 % 0 lf 1006,6 hPa 0,0 l/m 0,27 h 0,00 h 127 W/m 18,3 km/h (3 Bft) 97,08 %
21.03.2017 09:00 8,9 C 8,7 C 7,4 C 88 % 10 lf 1007,1 hPa 1,0 l/m 0,00 h 0,53 h 105 W/m 23,9 km/h (4 Bft) 96,28 %
21.03.2017 10:00 8,2 C 9,0 C 7,4 C 91 % 12 lf 1007,7 hPa 0,0 l/m 0,23 h 0,80 h 201 W/m 24,6 km/h (4 Bft) 92,83 %
21.03.2017 11:00 9,9 C 11,5 C 8,9 C 86 % 0 lf 1007,9 hPa 0,0 l/m 0,20 h 0,00 h 242 W/m 23,5 km/h (4 Bft) 98,36 %
21.03.2017 12:00 10,7 C 14,3 C 10,9 C 74 % 0 lf 1008,4 hPa 0,0 l/m 0,60 h 0,00 h 356 W/m 26,7 km/h (4 Bft) 96,72 %
21.03.2017 13:00 11,3 C 14,1 C 11,6 C 64 % 0 lf 1008,7 hPa 0,0 l/m 0,43 h 0,00 h 297 W/m 29,4 km/h (5 Bft) 93,15 %
21.03.2017 14:00 11,2 C 14,3 C 11,9 C 62 % 0 lf 1009,2 hPa 0,0 l/m 0,70 h 0,00 h 329 W/m 27,4 km/h (4 Bft) 97,02 %
21.03.2017 15:00 11,1 C 13,8 C 11,2 C 55 % 0 lf 1009,8 hPa 0,0 l/m 1,00 h 0,00 h 286 W/m 27,9 km/h (4 Bft) 97,22 %
21.03.2017 16:00 10,4 C 12,4 C 10,0 C 55 % 0 lf 1010,4 hPa 0,0 l/m 0,77 h 0,00 h 205 W/m 24,5 km/h (4 Bft) 93,25 %
21.03.2017 17:00 9,5 C 10,1 C 8,5 C 59 % 0 lf 1010,8 hPa 0,0 l/m 0,57 h 0,00 h 97 W/m 16,5 km/h (3 Bft) 97,57 %
21.03.2017 18:00 8,8 C 8,1 C 6,1 C 63 % 0 lf 1011,2 hPa 0,0 l/m 0,60 h 0,00 h 31 W/m 9,7 km/h (2 Bft) 95,32 %
21.03.2017 19:00 7,4 C 5,6 C 3,2 C 67 % 0 lf 1012,1 hPa 0,0 l/m 0,00 h 0,00 h 5 W/m 3,6 km/h (1 Bft) 95,74 %
21.03.2017 20:00 5,8 C 3,9 C 1,7 C 74 % 0 lf 1012,7 hPa 0,0 l/m 0,00 h 0,00 h 3 W/m 0,8 km/h (0 Bft) 92,51 %
21.03.2017 21:00 4,3 C 3,4 C 0,7 C 80 % 0 lf 1013,0 hPa 0,0 l/m 0,00 h 0,00 h 3 W/m 0,8 km/h (0 Bft) 95,12 %
21.03.2017 22:00 3,3 C 2,8 C 0,3 C 85 % 0 lf 1013,3 hPa 0,0 l/m 0,00 h 0,00 h 5 W/m 3,1 km/h (1 Bft) 95,10 %
21.03.2017 23:00 2,6 C 2,8 C 0,2 C 86 % 0 lf 1013,4 hPa 0,0 l/m 0,00 h 0,00 h 0 W/m 4,9 km/h (1 Bft) 96,77 %
22.03.2017 00:00 2,7 C 3,5 C 1,1 C 88 % 0 lf 1013,5 hPa 0,0 l/m 0,00 h 0,00 h 13 W/m 7,3 km/h (2 Bft) 97,28 %
22.03.2017 01:00 3,0 C 3,2 C 0,4 C 85 % 0 lf 1013,3 hPa 0,0 l/m 0,00 h 0,00 h 0 W/m 6,1 km/h (2 Bft) 93,45 %
22.03.2017 02:00 2,6 C 2,4 C -0,7 C 84 % 0 lf 1013,2 hPa 0,0 l/m 0,00 h 0,00 h 5 W/m 6,0 km/h (2 Bft) 96,09 %
22.03.2017 03:00 2,0 C 1,8 C -1,1 C 86 % 0 lf 1013,2 hPa 0,0 l/m 0,00 h 0,00 h 5 W/m 6,1 km/h (2 Bft) 97,51 %
22.03.2017 04:00 1,5 C 1,1 C -1,6 C 87 % 0 lf 1013,5 hPa 0,0 l/m 0,00 h 0,00 h 5 W/m 5,9 km/h (2 Bft) 94,07 %
22.03.2017 05:00 0,8 C 0,4 C -1,8 C 88 % 0 lf 1013,4 hPa 0,0 l/m 0,00 h 0,00 h 0 W/m 6,2 km/h (2 Bft) 94,80 %
22.03.2017 06:00 0,2 C -0,5 C -2,5 C 90 % 1 lf 1013,4 hPa 0,0 l/m 0,03 h 0,00 h 12 W/m 2,8 km/h (1 Bft) 96,25 %
22.03.2017 07:00 0,2 C 2,2 C -0,7 C 92 % 1 lf 1013,4 hPa 0,0 l/m 0,70 h 0,00 h 96 W/m 6,9 km/h (2 Bft) 95,09 %
22.03.2017 08:00 2,6 C 7,1 C 2,5 C 93 % 0 lf 1013,6 hPa 0,0 l/m 0,98 h 0,00 h 237 W/m 15,5 km/h (3 Bft) 97,29 %
22.03.2017 09:00 5,9 C 12,2 C 9,4 C 82 % 0 lf 1013,7 hPa 0,0 l/m 1,00 h 0,00 h 453 W/m 17,1 km/h (3 Bft) 94,38 %
22.03.2017 10:00 8,8 C 14,6 C 13,5 C 69 % 0 lf 1013,7 hPa 0,0 l/m 1,00 h 0,00 h 572 W/m 24,3 km/h (4 Bft) 94,73 %
22.03.2017 11:00 10,7 C 15,8 C 12,9 C 61 % 0 lf 1013,6 hPa 0,0 l/m 1,00 h 0,00 h 626 W/m 26,2 km/h (4 Bft) 98,15 %
22.03.2017 12:00 10,9 C 13,6 C 12,0 C 63 % 0 lf 1013,4 hPa 0,0 l/m 0,87 h 0,00 h 441 W/m 24,5 km/h (4 Bft) 95,00 %
22.03.2017 13:00 11,3 C 15,0 C 12,1 C 63 % 0 lf 1013,0 hPa 0,0 l/m 0,77 h 0,00 h 430 W/m 27,0 km/h (4 Bft) 95,12 %
22.03.2017 14:00 12,2 C 17,1 C 13,4 C 60 % 0 lf 1012,4 hPa 0,0 l/m 1,00 h 0,00 h 605 W/m 27,1 km/h (4 Bft) 97,37 %
22.03.2017 15:00 12,3 C 15,9 C 11,8 C 60 % 0 lf 1012,2 hPa 0,0 l/m 0,83 h 0,00 h 441 W/m 27,3 km/h (4 Bft) 95,38 %
22.03.2017 16:00 11,7 C 14,6 C 10,4 C 62 % 0 lf 1012,2 hPa 0,0 l/m 0,83 h 0,00 h 298 W/m 24,6 km/h (4 Bft) 96,71 %
22.03.2017 17:00 11,1 C 12,8 C 9,0 C 64 % 0 lf 1012,2 hPa 0,0 l/m 0,62 h 0,00 h 150 W/m 27,6 km/h (4 Bft) 98,06 %
22.03.2017 18:00 9,7 C 9,5 C 7,2 C 68 % 0 lf 1012,3 hPa 0,0 l/m 0,27 h 0,00 h 26 W/m 18,6 km/h (3 Bft) 95,32 %
22.03.2017 19:00 9,2 C 9,3 C 7,3 C 71 % 0 lf 1012,7 hPa 0,0 l/m 0,00 h 0,00 h 5 W/m 12,6 km/h (3 Bft) 97,33 %
22.03.2017 20:00 8,9 C 8,6 C 6,1 C 73 % 0 lf 1013,0 hPa 0,0 l/m 0,00 h 0,00 h 5 W/m 5,0 km/h (1 Bft) 96,11 %
22.03.2017 21:00 8,0 C 6,0 C 3,5 C 74 % 0 lf 1013,0 hPa 0,0 l/m 0,00 h 0,00 h 5 W/m 0,1 km/h (0 Bft) 93,95 %
22.03.2017 22:00 6,3 C 4,4 C 2,2 C 79 % 0 lf 1013,1 hPa 0,0 l/m 0,00 h 0,00 h 5 W/m 0,0 km/h (0 Bft) 95,58 %
22.03.2017 23:00 5,1 C 3,8 C 1,8 C 82 % 0 lf 1013,0 hPa 0,0 l/m 0,00 h 0,00 h 4 W/m 0,0 km/h (0 Bft) 98,14 %
23.03.2017 00:00 4,4 C 3,4 C 1,5 C 86 % 0 lf 1013,4 hPa 0,0 l/m 0,00 h 0,00 h 3 W/m 0,0 km/h (0 Bft) 95,31 %
23.03.2017 01:00 3,9 C 2,5 C 0,8 C 87 % 0 lf 1013,4 hPa 0,0 l/m 0,00 h 0,00 h 5 W/m 1,8 km/h (1 Bft) 94,88 %
23.03.2017 02:00 3,4 C 2,9 C 0,7 C 89 % 0 lf 1013,2 hPa 0,0 l/m 0,00 h 0,00 h 0 W/m 6,3 km/h (2 Bft) 96,82 %
23.03.2017 03:00 3,1 C 2,1 C -0,0 C 90 % 1 lf 1013,1 hPa 0,0 l/m 0,00 h 0,00 h 5 W/m 0,7 km/h (0 Bft) 95,01 %
23.03.2017 04:00 2,5 C 2,2 C -0,1 C 91 % 1 lf 1013,3 hPa 0,0 l/m 0,00 h 0,00 h 5 W/m 5,6 km/h (1 Bft) 97,01 %
23.03.2017 05:00 2,3 C 1,5 C -0,7 C 92 % 1 lf 1013,3 hPa 0,0 l/m 0,00 h 0,00 h 5 W/m 1,7 km/h (1 Bft) 97,05 %
23.03.2017 06:00 1,6 C 0,1 C -1,3 C 92 % 3 lf 1013,6 hPa 0,0 l/m 0,17 h 0,00 h 15 W/m 0,5 km/h (0 Bft) 95,80 %
23.03.2017 07:00 1,1 C 2,9 C -0,4 C 92 % 6 lf 1014,4 hPa 0,0 l/m 0,33 h 0,00 h 87 W/m 0,4 km/h (0 Bft) 94,47 %
23.03.2017 08:00 4,9 C 14,5 C 4,7 C 95 % 0 lf 1014,6 hPa 0,0 l/m 1,00 h 0,00 h 292 W/m 11,9 km/h (2 Bft) 97,30 %
23.03.2017 09:00 10,1 C 15,9 C 12,6 C 79 % 0 lf 1014,8 hPa 0,0 l/m 1,00 h 0,00 h 439 W/m 21,3 km/h (4 Bft) 96,87 %
23.03.2017 10:00 11,7 C 16,8 C 14,7 C 70 % 0 lf 1015,0 hPa 0,0 l/m 0,93 h 0,00 h 535 W/m 21,6 km/h (4 Bft) 95,15 %
23.03.2017 11:00 13,3 C 19,7 C 15,2 C 65 % 0 lf 1014,9 hPa 0,0 l/m 0,98 h 0,00 h 647 W/m 21,5 km/h (4 Bft) 95,76 %
23.03.2017 12:00 14,8 C 21,5 C 13,2 C 61 % 0 lf 1014,9 hPa 0,0 l/m 1,00 h 0,00 h 671 W/m 19,5 km/h (3 Bft) 95,32 %
23.03.2017 13:00 16,0 C 23,9 C 14,0 C 58 % 0 lf 1014,7 hPa 0,0 l/m 1,00 h 0,00 h 645 W/m 18,4 km/h (3 Bft) 97,24 %
23.03.2017 14:00 16,5 C 22,0 C 16,0 C 56 % 0 lf 1014,8 hPa 0,0 l/m 0,73 h 0,00 h 464 W/m 16,3 km/h (3 Bft) 96,23 %
23.03.2017 15:00 16,3 C 22,7 C 15,2 C 56 % 0 lf 1014,7 hPa 0,0 l/m 1,00 h 0,00 h 492 W/m 19,3 km/h (3 Bft) 94,38 %
23.03.2017 16:00 16,6 C 22,0 C 14,0 C 54 % 0 lf 1014,9 hPa 0,0 l/m 1,00 h 0,00 h 323 W/m 19,3 km/h (3 Bft) 98,58 %
23.03.2017 17:00 16,0 C 17,3 C 12,4 C 56 % 0 lf 1015,3 hPa 0,0 l/m 0,47 h 0,00 h 111 W/m 21,7 km/h (4 Bft) 95,58 %
23.03.2017 18:00 13,4 C 12,8 C 10,4 C 63 % 0 lf 1015,9 hPa 0,0 l/m 0,13 h 0,00 h 21 W/m 25,0 km/h (4 Bft) 95,44 %
23.03.2017 19:00 11,9 C 11,3 C 9,1 C 69 % 0 lf 1016,6 hPa 0,0 l/m 0,00 h 0,00 h 5 W/m 24,5 km/h (4 Bft) 96,73 %
23.03.2017 20:00 10,7 C 10,3 C 8,1 C 73 % 0 lf 1017,7 hPa 0,0 l/m 0,00 h 0,00 h 4 W/m 27,8 km/h (4 Bft) 96,12 %
23.03.2017 21:00 9,7 C 9,3 C 7,2 C 78 % 0 lf 1018,5 hPa 0,0 l/m 0,00 h 0,00 h 5 W/m 27,8 km/h (4 Bft) 95,90 %
23.03.2017 22:00 8,7 C 8,2 C 6,4 C 83 % 0 lf 1019,1 hPa 0,0 l/m 0,00 h 0,00 h 0 W/m 26,2 km/h (4 Bft) 96,31 %
23.03.2017 23:00 8,0 C 7,6 C 5,7 C 86 % 0 lf 1020,1 hPa 0,0 l/m 0,00 h 0,00 h 5 W/m 22,6 km/h (4 Bft) 93,23 %
24.03.2017 00:00 7,3 C 6,9 C 5,0 C 88 % 0 lf 1021,2 hPa 0,0 l/m 0,00 h 0,00 h 5 W/m 18,0 km/h (3 Bft) 97,40 %
24.03.2017 01:00 6,7 C 6,3 C 4,3 C 90 % 0 lf 1021,9 hPa 0,0 l/m 0,00 h 0,00 h 0 W/m 18,2 km/h (3 Bft) 97,16 %
24.03.2017 02:00 6,3 C 6,1 C 4,1 C 91 % 0 lf 1022,7 hPa 0,0 l/m 0,00 h 0,00 h 0 W/m 17,1 km/h (3 Bft) 94,45 %
24.03.2017 03:00 6,0 C 5,7 C 3,6 C 92 % 0 lf 1023,3 hPa 0,0 l/m 0,00 h 0,00 h 0 W/m 15,8 km/h (3 Bft) 95,09 %
24.03.2017 04:00 5,6 C 5,5 C 3,4 C 93 % 0 lf 1023,5 hPa 0,0 l/m 0,00 h 0,00 h 5 W/m 17,4 km/h (3 Bft) 96,68 %
24.03.2017 05:00 5,5 C 5,3 C 3,5 C 94 % 0 lf 1024,0 hPa 0,0 l/m 0,00 h 0,00 h 5 W/m 18,4 km/h (3 Bft) 96,23 %
24.03.2017 06:00 5,2 C 5,3 C 3,3 C 94 % 0 lf 1024,1 hPa 0,0 l/m 0,27 h 0,00 h 15 W/m 22,1 km/h (4 Bft) 95,66 %
24.03.2017 07:00 5,5 C 7,2 C 4,3 C 94 % 0 lf 1024,5 hPa 0,0 l/m 1,00 h 0,00 h 108 W/m 22,2 km/h (4 Bft) 95,03 %
24.03.2017 08:00 6,6 C 8,8 C 6,4 C 91 % 0 lf 1025,4 hPa 0,0 l/m 0,80 h 0,00 h 170 W/m 24,3 km/h (4 Bft) 96,44 %
24.03.2017 09:00 8,4 C 11,7 C 10,1 C 83 % 0 lf 1026,6 hPa 0,0 l/m 0,97 h 0,00 h 307 W/m 22,0 km/h (4 Bft) 97,43 %
24.03.2017 10:00 10,4 C 16,4 C 13,9 C 73 % 0 lf 1027,3 hPa 0,0 l/m 1,00 h 0,00 h 511 W/m 19,9 km/h (4 Bft) 94,87 %
24.03.2017 11:00 12,2 C 19,5 C 13,8 C 68 % 0 lf 1027,5 hPa 0,0 l/m 1,00 h 0,00 h 627 W/m 20,7 km/h (4 Bft) 95,37 %
24.03.2017 12:00 12,9 C 19,5 C 12,6 C 67 % 0 lf 1027,6 hPa 0,0 l/m 0,93 h 0,00 h 512 W/m 19,8 km/h (3 Bft) 97,72 %
24.03.2017 13:00 14,5 C 22,0 C 13,3 C 63 % 0 lf 1027,3 hPa 0,0 l/m 1,00 h 0,00 h 607 W/m 23,9 km/h (4 Bft) 95,52 %
24.03.2017 14:00 15,5 C 21,6 C 15,8 C 59 % 0 lf 1026,9 hPa 0,0 l/m 1,00 h 0,00 h 558 W/m 25,7 km/h (4 Bft) 95,59 %
24.03.2017 15:00 16,0 C 22,0 C 14,5 C 57 % 0 lf 1026,7 hPa 0,0 l/m 1,00 h 0,00 h 448 W/m 23,8 km/h (4 Bft) 97,23 %
24.03.2017 16:00 15,8 C 20,4 C 13,3 C 56 % 0 lf 1026,6 hPa 0,0 l/m 1,00 h 0,00 h 297 W/m 27,8 km/h (4 Bft) 94,37 %
24.03.2017 17:00 15,0 C 16,8 C 12,1 C 57 % 0 lf 1026,9 hPa 0,0 l/m 0,90 h 0,00 h 135 W/m 27,2 km/h (4 Bft) 96,52 %
24.03.2017 18:00 13,5 C 12,9 C 10,3 C 59 % 0 lf 1027,7 hPa 0,0 l/m 0,00 h 0,00 h 24 W/m 24,7 km/h (4 Bft) 96,45 %
24.03.2017 19:00 11,7 C 10,9 C 8,0 C 64 % 0 lf 1028,1 hPa 0,0 l/m 0,00 h 0,00 h 2 W/m 17,1 km/h (3 Bft) 94,23 %
24.03.2017 20:00 10,5 C 10,0 C 7,4 C 68 % 0 lf 1028,5 hPa 0,0 l/m 0,00 h 0,00 h 1 W/m 20,1 km/h (4 Bft) 96,58 %
24.03.2017 21:00 9,8 C 9,5 C 7,1 C 69 % 0 lf 1029,2 hPa 0,0 l/m 0,00 h 0,00 h 2 W/m 22,8 km/h (4 Bft) 97,29 %
24.03.2017 22:00 9,2 C 8,8 C 6,4 C 70 % 0 lf 1029,8 hPa 0,0 l/m 0,00 h 0,00 h 2 W/m 22,6 km/h (4 Bft) 92,46 %
24.03.2017 23:00 8,3 C 7,7 C 4,9 C 73 % 0 lf 1029,9 hPa 0,0 l/m 0,00 h 0,00 h 2 W/m 15,5 km/h (3 Bft) 96,52 %
25.03.2017 00:00 7,4 C 7,1 C 4,1 C 76 % 0 lf 1030,0 hPa 0,0 l/m 0,00 h 0,00 h 2 W/m 13,8 km/h (3 Bft) 98,20 %
25.03.2017 01:00 6,8 C 6,5 C 3,8 C 78 % 0 lf 1030,0 hPa 0,0 l/m 0,00 h 0,00 h 0 W/m 13,7 km/h (3 Bft) 93,37 %
25.03.2017 02:00 6,0 C 5,4 C 2,4 C 81 % 0 lf 1029,7 hPa 0,0 l/m 0,00 h 0,00 h 2 W/m 10,5 km/h (2 Bft) 95,59 %
25.03.2017 03:00 5,2 C 5,0 C 2,1 C 84 % 0 lf 1029,4 hPa 0,0 l/m 0,00 h 0,00 h 0 W/m 13,1 km/h (3 Bft) 97,16 %
25.03.2017 04:00 4,8 C 4,5 C 1,9 C 85 % 0 lf 1029,3 hPa 0,0 l/m 0,00 h 0,00 h 2 W/m 10,4 km/h (2 Bft) 94,27 %
25.03.2017 05:00 4,4 C 4,2 C 1,6 C 86 % 0 lf 1029,2 hPa 0,0 l/m 0,00 h 0,00 h 0 W/m 12,1 km/h (2 Bft) 97,51 %
25.03.2017 06:00 4,3 C 4,3 C 1,8 C 87 % 0 lf 1029,2 hPa 0,0 l/m 0,27 h 0,00 h 14 W/m 11,7 km/h (2 Bft) 94,67 %
25.03.2017 07:00 4,5 C 7,2 C 3,0 C 87 % 0 lf 1029,2 hPa 0,0 l/m 0,93 h 0,00 h 112 W/m 14,4 km/h (3 Bft) 94,09 %
25.03.2017 08:00 7,3 C 16,0 C 7,3 C 81 % 0 lf 1029,3 hPa 0,0 l/m 1,00 h 0,00 h 293 W/m 17,2 km/h (3 Bft) 97,50 %
25.03.2017 09:00 11,0 C 18,2 C 13,6 C 67 % 0 lf 1029,3 hPa 0,0 l/m 1,00 h 0,00 h 490 W/m 24,6 km/h (4 Bft) 95,58 %
25.03.2017 10:00 12,7 C 19,6 C 16,6 C 60 % 0 lf 1029,1 hPa 0,0 l/m 1,00 h 0,00 h 630 W/m 28,5 km/h (4 Bft) 94,73 %
25.03.2017 11:00 14,4 C 21,1 C 16,1 C 53 % 0 lf 1028,4 hPa 0,0 l/m 1,00 h 0,00 h 651 W/m 34,8 km/h (5 Bft) 96,51 %
25.03.2017 12:00 15,4 C 21,4 C 14,2 C 47 % 0 lf 1027,6 hPa 0,0 l/m 1,00 h 0,00 h 597 W/m 33,9 km/h (5 Bft) 95,09 %
25.03.2017 13:00 16,6 C 23,5 C 14,9 C 44 % 0 lf 1026,7 hPa 0,0 l/m 1,00 h 0,00 h 710 W/m 33,0 km/h (5 Bft) 96,30 %
25.03.2017 14:00 17,0 C 23,4 C 16,4 C 41 % 0 lf 1025,6 hPa 0,0 l/m 1,00 h 0,00 h 599 W/m 33,0 km/h (5 Bft) 97,15 %
25.03.2017 15:00 16,7 C 22,8 C 14,5 C 40 % 0 lf 1024,8 hPa 0,0 l/m 1,00 h 0,00 h 478 W/m 35,6 km/h (5 Bft) 94,17 %
25.03.2017 16:00 16,6 C 21,0 C 13,9 C 40 % 0 lf 1024,2 hPa 0,0 l/m 1,00 h 0,00 h 322 W/m 33,3 km/h (5 Bft) 95,73 %
25.03.2017 17:00 15,7 C 17,5 C 12,8 C 39 % 0 lf 1023,6 hPa 0,0 l/m 1,00 h 0,00 h 168 W/m 30,5 km/h (5 Bft) 88,19 %
25.03.2017 18:00 14,0 C 13,5 C 10,9 C 39 % 0 lf 1023,5 hPa 0,0 l/m 0,73 h 0,00 h 105 W/m 27,1 km/h (4 Bft) 77,10 %
25.03.2017 19:00 12,1 C 11,4 C 8,9 C 44 % 0 lf 1023,8 hPa 0,0 l/m 0,00 h 0,00 h 26 W/m 21,8 km/h (4 Bft) 87,60 %
25.03.2017 20:00 11,0 C 10,7 C 8,0 C 47 % 0 lf 1024,0 hPa 0,0 l/m 0,00 h 0,00 h 4 W/m 23,8 km/h (4 Bft) 97,57 %
25.03.2017 21:00 10,4 C 10,1 C 7,5 C 51 % 0 lf 1024,0 hPa 0,0 l/m 0,00 h 0,00 h 5 W/m 23,5 km/h (4 Bft) 94,66 %
25.03.2017 22:00 9,7 C 9,4 C 6,9 C 55 % 0 lf 1023,9 hPa 0,0 l/m 0,00 h 0,00 h 3 W/m 20,5 km/h (4 Bft) 95,43 %
25.03.2017 23:00 9,0 C 8,6 C 6,4 C 59 % 0 lf 1023,7 hPa 0,0 l/m 0,00 h 0,00 h 3 W/m 23,4 km/h (4 Bft) 96,51 %
26.03.2017 00:00 8,4 C 8,0 C 5,9 C 66 % 0 lf 1023,6 hPa 0,0 l/m 0,00 h 0,00 h 2 W/m 25,3 km/h (4 Bft) 93,62 %
26.03.2017 01:00 7,6 C 7,1 C 4,8 C 74 % 0 lf 1023,5 hPa 0,0 l/m 0,00 h 0,00 h 0 W/m 20,3 km/h (4 Bft) 95,80 %
26.03.2017 03:00 6,8 C 6,2 C 4,2 C 80 % 0 lf 1023,2 hPa 0,0 l/m 0,00 h 0,00 h 0 W/m 16,7 km/h (3 Bft) 82,69 %
26.03.2017 04:00 6,2 C 5,6 C 3,9 C 84 % 0 lf 1023,2 hPa 0,0 l/m 0,00 h 0,00 h 4 W/m 14,4 km/h (3 Bft) 66,86 %
26.03.2017 05:00 5,8 C 5,2 C 3,4 C 87 % 0 lf 1023,1 hPa 0,0 l/m 0,00 h 0,00 h 0 W/m 12,7 km/h (3 Bft) 77,66 %
26.03.2017 06:00 5,1 C 4,1 C 2,0 C 88 % 1 lf 1023,3 hPa 0,0 l/m 0,00 h 0,00 h 4 W/m 6,0 km/h (2 Bft) 89,06 %
26.03.2017 07:00 4,4 C 3,8 C 2,3 C 90 % 1 lf 1023,4 hPa 0,0 l/m 0,33 h 0,00 h 16 W/m 7,9 km/h (2 Bft) 91,67 %
26.03.2017 08:00 4,4 C 5,8 C 3,4 C 93 % 1 lf 1023,7 hPa 0,0 l/m 1,00 h 0,00 h 94 W/m 9,2 km/h (2 Bft) 94,66 %
26.03.2017 09:00 6,0 C 10,7 C 6,6 C 94 % 0 lf 1024,3 hPa 0,0 l/m 1,00 h 0,00 h 229 W/m 19,9 km/h (4 Bft) 94,66 %
26.03.2017 10:00 8,5 C 15,7 C 11,5 C 87 % 0 lf 1024,3 hPa 0,0 l/m 1,00 h 0,00 h 410 W/m 17,1 km/h (3 Bft) 97,01 %
26.03.2017 11:00 10,9 C 19,2 C 15,1 C 75 % 0 lf 1024,2 hPa 0,0 l/m 1,00 h 0,00 h 525 W/m 14,1 km/h (3 Bft) 95,66 %
26.03.2017 12:00 12,5 C 20,1 C 14,4 C 66 % 0 lf 1024,0 hPa 0,0 l/m 1,00 h 0,00 h 611 W/m 11,7 km/h (2 Bft) 95,03 %
26.03.2017 13:00 13,7 C 23,6 C 12,7 C 63 % 0 lf 1023,5 hPa 0,0 l/m 1,00 h 0,00 h 709 W/m 13,6 km/h (3 Bft) 96,45 %
26.03.2017 14:00 14,0 C 22,7 C 12,9 C 62 % 0 lf 1023,0 hPa 0,0 l/m 1,00 h 0,00 h 639 W/m 16,6 km/h (3 Bft) 97,41 %
26.03.2017 15:00 15,0 C 23,2 C 15,4 C 56 % 0 lf 1022,7 hPa 0,0 l/m 1,00 h 0,00 h 574 W/m 17,2 km/h (3 Bft) 94,11 %
26.03.2017 16:00 15,7 C 22,6 C 14,1 C 52 % 0 lf 1022,3 hPa 0,0 l/m 1,00 h 0,00 h 471 W/m 16,7 km/h (3 Bft) 96,51 %
26.03.2017 17:00 16,4 C 22,1 C 13,9 C 48 % 0 lf 1021,9 hPa 0,0 l/m 1,00 h 0,00 h 320 W/m 17,1 km/h (3 Bft) 96,26 %
26.03.2017 18:00 16,2 C 17,7 C 12,6 C 48 % 0 lf 1021,7 hPa 0,0 l/m 1,00 h 0,00 h 140 W/m 17,7 km/h (3 Bft) 86,61 %
26.03.2017 19:00 14,7 C 13,7 C 10,8 C 51 % 0 lf 1021,8 hPa 0,0 l/m 0,77 h 0,00 h 35 W/m 19,1 km/h (3 Bft) 92,41 %
26.03.2017 20:00 12,6 C 11,6 C 8,1 C 57 % 0 lf 1022,2 hPa 0,0 l/m 0,00 h 0,00 h 5 W/m 13,0 km/h (3 Bft) 95,88 %
26.03.2017 21:00 11,2 C 10,4 C 6,6 C 64 % 0 lf 1022,5 hPa 0,0 l/m 0,00 h 0,00 h 5 W/m 12,6 km/h (3 Bft) 94,44 %
26.03.2017 22:00 10,1 C 9,6 C 6,5 C 70 % 0 lf 1022,9 hPa 0,0 l/m 0,00 h 0,00 h 4 W/m 15,9 km/h (3 Bft) 91,25 %
26.03.2017 23:00 9,6 C 8,9 C 5,5 C 74 % 0 lf 1023,0 hPa 0,0 l/m 0,00 h 0,00 h 4 W/m 9,4 km/h (2 Bft) 93,02 %
Min-Datum _ 22.03.17 22.03.17 22.03.17 25.03.17 20.03.17 20.03.17 - - - - 21.03.17 25.03.17
_ Min-Zeit 06:52 06:34 06:20 15:54 00:18 22:06 - - - - 20:10 18:50
Minimum _ -0,2 C -1,7 C -2,8 C 38 % 0 lf 1004,7 hPa - - - - 0,0 km/h (0 Bft) 40,43 %
Max-Datum _ 25.03.17 23.03.17 25.03.17 23.03.17 20.03.17 25.03.17 21.03.17 20.03.17 20.03.17 26.03.17 20.03.17 20.03.17
_ Max-Zeit 14:30 13:40 14:20 08:20 07:10 00:04 09:26 10:14 07:12 13:02 12:38 00:58
Maximum _ 17,3 C 26,7 C 19,4 C 96 % 15 lf 1030,1 hPa 1,0 l/m 0,03 h 0,03 h 882 W/m 54,4 km/h
W-SW (7 Bft)
100,00 %
Durchschnitt _ 9,5 C 11,2 C 8,0 C 75 % 1 lf 1017,1 hPa #1,4 l/m #62:27 h #3:13 h 203 W/m 19,2 km/h (3 Bft) 95,08 %
© 2017 W. Hausmann